Flugplatz Hannover

Bericht für EDDV

vom 12.12. um 23:50 UTC

Wind 6 kt aus 70°

Sichtweite 10 km oder mehr

aufgelockert bewölkt in 1700 ft

Temperatur 1.0°C

Taupunkt -1.0°C

Luftfeuchtigkeit 86%

Luftdruck 1026 hPa

EDDV 122350Z 07006KT 9999 SCT017 01/M01 Q1026

Prognose für EDDV

vom 12.12. um 23:14 UTC

Zwischen 00:00 UTC und 00:00 UTC

Wind 7 kt aus 80°

Sichtweite 10 km oder mehr

aufgebrochene Bewölkung in 2500 ft


Zwischen 00:00 UTC und 10:00 UTC zeitweise mit einer Wahrscheinlichkeit von 30%

aufgebrochene Bewölkung in 800 ft


Zwischen 00:00 UTC und 11:00 UTC zeitweise

aufgebrochene Bewölkung in 1200 ft


Zwischen 11:00 UTC und 19:00 UTC zeitweise mit einer Wahrscheinlichkeit von 30%

aufgebrochene Bewölkung in 1200 ft


Zwischen 17:00 UTC und 00:00 UTC zeitweise mit einer Wahrscheinlichkeit von 40%

Sichtweite 2500 m

schwacher Schnee

aufgebrochene Bewölkung in 800 ft


Zwischen 19:00 UTC und 00:00 UTC zeitweise

aufgebrochene Bewölkung in 1200 ft

TAF COR EDDV 122314Z 1300/1324 08007KT 9999 BKN025 TEMPO 1300/1311 BKN012 PROB30 TEMPO 1300/1310 BKN008 PROB30 TEMPO 1311/1319 BKN012 PROB40 TEMPO 1317/1324 2500 -SN BKN008 TEMPO 1319/1324 BKN012
Impressum